Seabeck, Washington
Current Conditions -  °F | °C
As of 7:55 PM on Wednesday 22 Oct 2014 (Local Time) from KPWT Reporting Station
Overcast Overcast  
Wind Chill: 54°   Ceiling: 2600
Heat Index: 54°   Visibility: 10mi
Dew Point: 54°   Wind: 12mph
Humidity: 100%   Direction: 170°S
Pressure: 29.59"   Gusts: 17mph
Location:  47.64°N, 122.83°W
Report Text: KPWT 230255Z AUTO 17010G15KT 10SM FEW006 BKN026 OVC050 12/12 A2959 RMK AO1 P0012 60020 57010
Loading
Personal Weather Stations






























Interactive Weather Map
Tropical Storm Tracking
New forecast layout! Learn more

10-Day Weather Forecast

Advertisements
Track Severe Weather on mobile